sensor_id;sensor_type;location;lat;lon;timestamp;temperature;humidity
71396;DHT22;59888;55.814;37.132;2023-08-06T00:00:50;24.47;47.75
71396;DHT22;59888;55.814;37.132;2023-08-06T00:03:16;24.49;47.58
71396;DHT22;59888;55.814;37.132;2023-08-06T00:05:42;24.43;47.73
71396;DHT22;59888;55.814;37.132;2023-08-06T00:08:11;24.42;47.67
71396;DHT22;59888;55.814;37.132;2023-08-06T00:10:40;24.43;47.92
71396;DHT22;59888;55.814;37.132;2023-08-06T00:13:07;24.40;47.73
71396;DHT22;59888;55.814;37.132;2023-08-06T00:15:33;24.36;47.90
71396;DHT22;59888;55.814;37.132;2023-08-06T00:22:01;24.29;48.35
71396;DHT22;59888;55.814;37.132;2023-08-06T00:24:27;24.31;48.07
71396;DHT22;59888;55.814;37.132;2023-08-06T00:26:53;24.28;48.17
71396;DHT22;59888;55.814;37.132;2023-08-06T00:29:20;24.26;48.25
71396;DHT22;59888;55.814;37.132;2023-08-06T00:31:46;24.21;48.27
71396;DHT22;59888;55.814;37.132;2023-08-06T00:34:12;24.20;48.37
71396;DHT22;59888;55.814;37.132;2023-08-06T00:36:38;24.23;48.50
71396;DHT22;59888;55.814;37.132;2023-08-06T00:39:04;24.30;48.32
71396;DHT22;59888;55.814;37.132;2023-08-06T00:41:30;24.35;48.70
71396;DHT22;59888;55.814;37.132;2023-08-06T00:43:56;24.45;48.39
71396;DHT22;59888;55.814;37.132;2023-08-06T00:46:22;24.51;48.73
71396;DHT22;59888;55.814;37.132;2023-08-06T00:48:48;24.55;48.24
71396;DHT22;59888;55.814;37.132;2023-08-06T00:51:14;24.50;48.37
71396;DHT22;59888;55.814;37.132;2023-08-06T00:53:41;24.60;48.15
71396;DHT22;59888;55.814;37.132;2023-08-06T00:56:07;24.63;48.37
71396;DHT22;59888;55.814;37.132;2023-08-06T00:58:35;24.62;48.08
71396;DHT22;59888;55.814;37.132;2023-08-06T01:01:02;24.58;47.98
71396;DHT22;59888;55.814;37.132;2023-08-06T01:03:28;24.47;48.05
71396;DHT22;59888;55.814;37.132;2023-08-06T01:05:54;24.42;48.36
71396;DHT22;59888;55.814;37.132;2023-08-06T01:11:37;24.28;49.44
71396;DHT22;59888;55.814;37.132;2023-08-06T01:14:21;24.20;48.92
71396;DHT22;59888;55.814;37.132;2023-08-06T01:16:50;24.18;48.71
71396;DHT22;59888;55.814;37.132;2023-08-06T01:19:18;24.17;48.73
71396;DHT22;59888;55.814;37.132;2023-08-06T01:21:44;24.15;48.78
71396;DHT22;59888;55.814;37.132;2023-08-06T01:24:11;24.14;49.15
71396;DHT22;59888;55.814;37.132;2023-08-06T01:27:00;24.12;49.89
71396;DHT22;59888;55.814;37.132;2023-08-06T01:29:33;24.10;49.46
71396;DHT22;59888;55.814;37.132;2023-08-06T01:32:02;24.06;50.37
71396;DHT22;59888;55.814;37.132;2023-08-06T01:34:31;24.01;49.14
71396;DHT22;59888;55.814;37.132;2023-08-06T01:36:59;24.00;49.08
71396;DHT22;59888;55.814;37.132;2023-08-06T01:39:26;24.01;49.34
71396;DHT22;59888;55.814;37.132;2023-08-06T01:41:52;24.00;49.20
71396;DHT22;59888;55.814;37.132;2023-08-06T01:44:18;23.98;49.36
71396;DHT22;59888;55.814;37.132;2023-08-06T01:46:44;23.92;49.50
71396;DHT22;59888;55.814;37.132;2023-08-06T01:49:10;23.96;49.75
71396;DHT22;59888;55.814;37.132;2023-08-06T01:51:36;24.00;49.62
71396;DHT22;59888;55.814;37.132;2023-08-06T01:54:02;24.00;49.49
71396;DHT22;59888;55.814;37.132;2023-08-06T01:56:29;24.01;49.32
71396;DHT22;59888;55.814;37.132;2023-08-06T01:58:55;24.01;49.43
71396;DHT22;59888;55.814;37.132;2023-08-06T02:01:21;24.02;49.66
71396;DHT22;59888;55.814;37.132;2023-08-06T02:03:47;24.04;49.56
71396;DHT22;59888;55.814;37.132;2023-08-06T02:06:12;24.04;49.50
71396;DHT22;59888;55.814;37.132;2023-08-06T02:08:38;24.10;49.72
71396;DHT22;59888;55.814;37.132;2023-08-06T02:11:05;24.15;49.56
71396;DHT22;59888;55.814;37.132;2023-08-06T02:13:31;24.19;49.57
71396;DHT22;59888;55.814;37.132;2023-08-06T02:15:57;24.25;49.31
71396;DHT22;59888;55.814;37.132;2023-08-06T02:18:25;24.28;49.52
71396;DHT22;59888;55.814;37.132;2023-08-06T02:20:58;24.35;49.68
71396;DHT22;59888;55.814;37.132;2023-08-06T02:23:25;24.36;49.08
71396;DHT22;59888;55.814;37.132;2023-08-06T02:26:02;24.35;49.90
71396;DHT22;59888;55.814;37.132;2023-08-06T02:28:29;24.36;49.11
71396;DHT22;59888;55.814;37.132;2023-08-06T02:30:55;24.34;49.14
71396;DHT22;59888;55.814;37.132;2023-08-06T02:33:21;24.36;48.90
71396;DHT22;59888;55.814;37.132;2023-08-06T02:35:48;24.39;48.95
71396;DHT22;59888;55.814;37.132;2023-08-06T02:38:14;24.41;48.89
71396;DHT22;59888;55.814;37.132;2023-08-06T02:40:45;24.43;49.46
71396;DHT22;59888;55.814;37.132;2023-08-06T02:43:13;24.48;49.05
71396;DHT22;59888;55.814;37.132;2023-08-06T02:45:39;24.54;48.94
71396;DHT22;59888;55.814;37.132;2023-08-06T02:48:05;24.62;48.99
71396;DHT22;59888;55.814;37.132;2023-08-06T02:50:38;24.72;49.59
71396;DHT22;59888;55.814;37.132;2023-08-06T02:53:06;24.88;48.99
71396;DHT22;59888;55.814;37.132;2023-08-06T02:55:33;24.99;48.59
71396;DHT22;59888;55.814;37.132;2023-08-06T02:58:01;25.05;48.34
71396;DHT22;59888;55.814;37.132;2023-08-06T03:00:31;25.16;48.40
71396;DHT22;59888;55.814;37.132;2023-08-06T03:02:59;25.19;48.25
71396;DHT22;59888;55.814;37.132;2023-08-06T03:05:51;25.27;48.95
71396;DHT22;59888;55.814;37.132;2023-08-06T03:08:20;25.35;48.02
71396;DHT22;59888;55.814;37.132;2023-08-06T03:10:50;25.40;48.00
71396;DHT22;59888;55.814;37.132;2023-08-06T03:13:18;25.44;47.97
71396;DHT22;59888;55.814;37.132;2023-08-06T03:15:54;25.52;48.60
71396;DHT22;59888;55.814;37.132;2023-08-06T03:18:20;25.59;47.79
71396;DHT22;59888;55.814;37.132;2023-08-06T03:20:49;25.66;47.66
71396;DHT22;59888;55.814;37.132;2023-08-06T03:23:15;25.72;47.60
71396;DHT22;59888;55.814;37.132;2023-08-06T03:25:41;25.79;47.44
71396;DHT22;59888;55.814;37.132;2023-08-06T03:28:08;25.86;47.54
71396;DHT22;59888;55.814;37.132;2023-08-06T03:30:35;25.94;47.39
71396;DHT22;59888;55.814;37.132;2023-08-06T03:33:02;26.04;47.26
71396;DHT22;59888;55.814;37.132;2023-08-06T03:35:29;26.12;47.18
71396;DHT22;59888;55.814;37.132;2023-08-06T03:37:55;26.21;46.96
71396;DHT22;59888;55.814;37.132;2023-08-06T03:40:21;26.33;46.81
71396;DHT22;59888;55.814;37.132;2023-08-06T03:42:48;26.42;46.61
71396;DHT22;59888;55.814;37.132;2023-08-06T03:45:14;26.52;46.52
71396;DHT22;59888;55.814;37.132;2023-08-06T03:47:41;26.61;46.51
71396;DHT22;59888;55.814;37.132;2023-08-06T03:50:08;26.72;46.30
71396;DHT22;59888;55.814;37.132;2023-08-06T03:52:35;26.81;46.17
71396;DHT22;59888;55.814;37.132;2023-08-06T03:55:00;26.92;46.02
71396;DHT22;59888;55.814;37.132;2023-08-06T03:57:27;27.02;45.88
71396;DHT22;59888;55.814;37.132;2023-08-06T03:59:54;27.12;45.83
71396;DHT22;59888;55.814;37.132;2023-08-06T04:02:19;27.23;45.72
71396;DHT22;59888;55.814;37.132;2023-08-06T04:04:45;27.36;45.61
71396;DHT22;59888;55.814;37.132;2023-08-06T04:07:11;27.46;45.71
71396;DHT22;59888;55.814;37.132;2023-08-06T04:10:03;27.59;45.67
71396;DHT22;59888;55.814;37.132;2023-08-06T04:12:32;27.72;44.99
71396;DHT22;59888;55.814;37.132;2023-08-06T04:15:03;27.83;44.81
71396;DHT22;59888;55.814;37.132;2023-08-06T04:17:33;27.94;44.63
71396;DHT22;59888;55.814;37.132;2023-08-06T04:19:59;28.05;44.52
71396;DHT22;59888;55.814;37.132;2023-08-06T04:22:26;28.16;44.24
71396;DHT22;59888;55.814;37.132;2023-08-06T04:24:53;28.28;43.81
71396;DHT22;59888;55.814;37.132;2023-08-06T04:27:19;28.41;43.74
71396;DHT22;59888;55.814;37.132;2023-08-06T04:29:47;28.49;43.51
71396;DHT22;59888;55.814;37.132;2023-08-06T04:32:14;28.59;43.34
71396;DHT22;59888;55.814;37.132;2023-08-06T04:34:45;28.68;43.14
71396;DHT22;59888;55.814;37.132;2023-08-06T04:37:12;28.77;42.85
71396;DHT22;59888;55.814;37.132;2023-08-06T04:39:38;28.88;42.71
71396;DHT22;59888;55.814;37.132;2023-08-06T04:42:05;28.94;42.61
71396;DHT22;59888;55.814;37.132;2023-08-06T04:44:31;29.05;42.38
71396;DHT22;59888;55.814;37.132;2023-08-06T04:47:00;29.13;42.20
71396;DHT22;59888;55.814;37.132;2023-08-06T04:49:26;29.17;42.15
71396;DHT22;59888;55.814;37.132;2023-08-06T04:51:52;29.24;42.07
71396;DHT22;59888;55.814;37.132;2023-08-06T04:54:18;29.32;41.99
71396;DHT22;59888;55.814;37.132;2023-08-06T04:56:44;29.42;41.76
71396;DHT22;59888;55.814;37.132;2023-08-06T04:59:09;29.48;41.70
71396;DHT22;59888;55.814;37.132;2023-08-06T05:01:36;29.56;41.60
71396;DHT22;59888;55.814;37.132;2023-08-06T05:04:04;29.62;41.42
71396;DHT22;59888;55.814;37.132;2023-08-06T05:06:30;29.65;41.37
71396;DHT22;59888;55.814;37.132;2023-08-06T05:08:56;29.71;41.25
71396;DHT22;59888;55.814;37.132;2023-08-06T05:11:22;29.76;41.23
71396;DHT22;59888;55.814;37.132;2023-08-06T05:13:48;29.86;41.13
71396;DHT22;59888;55.814;37.132;2023-08-06T05:16:14;29.97;40.99
71396;DHT22;59888;55.814;37.132;2023-08-06T05:18:40;30.07;40.91
71396;DHT22;59888;55.814;37.132;2023-08-06T05:21:07;30.18;40.78
71396;DHT22;59888;55.814;37.132;2023-08-06T05:23:33;30.30;40.62
71396;DHT22;59888;55.814;37.132;2023-08-06T05:25:59;30.39;40.52
71396;DHT22;59888;55.814;37.132;2023-08-06T05:28:25;30.46;40.33
71396;DHT22;59888;55.814;37.132;2023-08-06T05:30:51;30.55;40.20
71396;DHT22;59888;55.814;37.132;2023-08-06T05:33:17;30.62;40.17
71396;DHT22;59888;55.814;37.132;2023-08-06T05:35:42;30.70;40.00
71396;DHT22;59888;55.814;37.132;2023-08-06T05:38:09;30.80;39.88
71396;DHT22;59888;55.814;37.132;2023-08-06T05:40:34;30.92;39.82
71396;DHT22;59888;55.814;37.132;2023-08-06T05:43:00;31.00;39.58
71396;DHT22;59888;55.814;37.132;2023-08-06T05:45:26;31.05;39.52
71396;DHT22;59888;55.814;37.132;2023-08-06T05:47:52;31.11;39.41
71396;DHT22;59888;55.814;37.132;2023-08-06T05:50:19;31.15;39.43
71396;DHT22;59888;55.814;37.132;2023-08-06T05:52:46;31.23;39.32
71396;DHT22;59888;55.814;37.132;2023-08-06T05:55:11;31.27;39.24
71396;DHT22;59888;55.814;37.132;2023-08-06T05:57:37;31.35;39.07
71396;DHT22;59888;55.814;37.132;2023-08-06T06:00:04;31.31;39.10
71396;DHT22;59888;55.814;37.132;2023-08-06T06:02:39;31.30;39.16
71396;DHT22;59888;55.814;37.132;2023-08-06T06:05:05;31.35;39.13
71396;DHT22;59888;55.814;37.132;2023-08-06T06:07:31;31.42;39.05
71396;DHT22;59888;55.814;37.132;2023-08-06T06:09:57;31.46;38.99
71396;DHT22;59888;55.814;37.132;2023-08-06T06:12:24;31.46;38.95
71396;DHT22;59888;55.814;37.132;2023-08-06T06:14:51;31.49;38.97
71396;DHT22;59888;55.814;37.132;2023-08-06T06:17:17;31.52;38.96
71396;DHT22;59888;55.814;37.132;2023-08-06T06:19:43;31.57;38.92
71396;DHT22;59888;55.814;37.132;2023-08-06T06:22:09;31.65;38.81
71396;DHT22;59888;55.814;37.132;2023-08-06T06:24:35;31.71;38.78
71396;DHT22;59888;55.814;37.132;2023-08-06T06:27:01;31.78;38.71
71396;DHT22;59888;55.814;37.132;2023-08-06T06:29:27;31.90;38.61
71396;DHT22;59888;55.814;37.132;2023-08-06T06:31:53;31.99;38.46
71396;DHT22;59888;55.814;37.132;2023-08-06T06:34:19;32.08;38.25
71396;DHT22;59888;55.814;37.132;2023-08-06T06:36:45;32.14;38.22
71396;DHT22;59888;55.814;37.132;2023-08-06T06:39:11;32.22;38.28
71396;DHT22;59888;55.814;37.132;2023-08-06T06:41:37;32.31;38.15
71396;DHT22;59888;55.814;37.132;2023-08-06T06:44:11;32.35;38.03
71396;DHT22;59888;55.814;37.132;2023-08-06T06:46:37;32.34;38.04
71396;DHT22;59888;55.814;37.132;2023-08-06T06:49:03;32.42;37.88
71396;DHT22;59888;55.814;37.132;2023-08-06T06:51:28;32.45;37.76
71396;DHT22;59888;55.814;37.132;2023-08-06T06:53:54;32.50;37.53
71396;DHT22;59888;55.814;37.132;2023-08-06T06:56:20;32.58;37.52
71396;DHT22;59888;55.814;37.132;2023-08-06T06:58:46;32.61;37.45
71396;DHT22;59888;55.814;37.132;2023-08-06T07:01:13;32.66;37.50
71396;DHT22;59888;55.814;37.132;2023-08-06T07:03:39;32.68;37.33
71396;DHT22;59888;55.814;37.132;2023-08-06T07:06:05;32.74;37.38
71396;DHT22;59888;55.814;37.132;2023-08-06T07:08:31;32.85;37.27
71396;DHT22;59888;55.814;37.132;2023-08-06T07:11:05;32.96;37.04
71396;DHT22;59888;55.814;37.132;2023-08-06T07:13:32;33.00;36.82
71396;DHT22;59888;55.814;37.132;2023-08-06T07:15:58;33.00;36.74
71396;DHT22;59888;55.814;37.132;2023-08-06T07:18:24;33.03;36.71
71396;DHT22;59888;55.814;37.132;2023-08-06T07:20:51;33.06;36.62
71396;DHT22;59888;55.814;37.132;2023-08-06T07:23:22;33.13;36.18
71396;DHT22;59888;55.814;37.132;2023-08-06T07:25:48;33.17;36.23
71396;DHT22;59888;55.814;37.132;2023-08-06T07:28:15;33.22;36.21
71396;DHT22;59888;55.814;37.132;2023-08-06T07:30:43;33.33;36.04
71396;DHT22;59888;55.814;37.132;2023-08-06T07:33:09;33.43;35.95
71396;DHT22;59888;55.814;37.132;2023-08-06T07:35:36;33.53;35.71
71396;DHT22;59888;55.814;37.132;2023-08-06T07:38:02;33.61;35.60
71396;DHT22;59888;55.814;37.132;2023-08-06T07:40:28;33.62;35.31
71396;DHT22;59888;55.814;37.132;2023-08-06T07:42:55;33.63;35.31
71396;DHT22;59888;55.814;37.132;2023-08-06T07:45:21;33.66;35.28
71396;DHT22;59888;55.814;37.132;2023-08-06T07:47:47;33.66;35.21
71396;DHT22;59888;55.814;37.132;2023-08-06T07:50:13;33.68;35.17
71396;DHT22;59888;55.814;37.132;2023-08-06T07:52:40;33.71;34.83
71396;DHT22;59888;55.814;37.132;2023-08-06T07:55:06;33.74;34.88
71396;DHT22;59888;55.814;37.132;2023-08-06T07:57:32;33.78;34.78
71396;DHT22;59888;55.814;37.132;2023-08-06T08:00:01;33.74;34.39
71396;DHT22;59888;55.814;37.132;2023-08-06T08:02:28;33.74;34.63
71396;DHT22;59888;55.814;37.132;2023-08-06T08:04:55;33.78;34.36
71396;DHT22;59888;55.814;37.132;2023-08-06T08:07:21;33.86;34.41
71396;DHT22;59888;55.814;37.132;2023-08-06T08:09:47;33.97;34.35
71396;DHT22;59888;55.814;37.132;2023-08-06T08:12:14;34.07;34.16
71396;DHT22;59888;55.814;37.132;2023-08-06T08:14:40;34.06;34.17
71396;DHT22;59888;55.814;37.132;2023-08-06T08:17:06;34.11;33.99
71396;DHT22;59888;55.814;37.132;2023-08-06T08:19:32;34.18;33.92
71396;DHT22;59888;55.814;37.132;2023-08-06T08:21:58;34.26;33.92
71396;DHT22;59888;55.814;37.132;2023-08-06T08:24:24;34.32;33.76
71396;DHT22;59888;55.814;37.132;2023-08-06T08:26:51;34.33;33.44
71396;DHT22;59888;55.814;37.132;2023-08-06T08:29:18;34.26;33.55
71396;DHT22;59888;55.814;37.132;2023-08-06T08:31:45;34.30;33.54
71396;DHT22;59888;55.814;37.132;2023-08-06T08:34:11;34.33;33.61
71396;DHT22;59888;55.814;37.132;2023-08-06T08:36:37;34.34;33.80
71396;DHT22;59888;55.814;37.132;2023-08-06T08:39:03;34.29;33.49
71396;DHT22;59888;55.814;37.132;2023-08-06T08:41:31;34.26;33.51
71396;DHT22;59888;55.814;37.132;2023-08-06T08:43:58;34.27;33.43
71396;DHT22;59888;55.814;37.132;2023-08-06T08:46:29;34.27;33.25
71396;DHT22;59888;55.814;37.132;2023-08-06T08:48:59;34.26;33.24
71396;DHT22;59888;55.814;37.132;2023-08-06T08:51:29;34.36;33.28
71396;DHT22;59888;55.814;37.132;2023-08-06T08:53:55;34.41;33.25
71396;DHT22;59888;55.814;37.132;2023-08-06T08:56:25;34.41;33.39
71396;DHT22;59888;55.814;37.132;2023-08-06T08:58:51;34.41;33.23
71396;DHT22;59888;55.814;37.132;2023-08-06T09:01:21;34.37;33.37
71396;DHT22;59888;55.814;37.132;2023-08-06T09:03:47;34.35;33.35
71396;DHT22;59888;55.814;37.132;2023-08-06T09:06:15;34.40;33.41
71396;DHT22;59888;55.814;37.132;2023-08-06T09:08:51;34.46;33.42
71396;DHT22;59888;55.814;37.132;2023-08-06T09:11:20;34.52;33.28
71396;DHT22;59888;55.814;37.132;2023-08-06T09:13:49;34.52;33.28
71396;DHT22;59888;55.814;37.132;2023-08-06T09:16:15;34.60;33.23
71396;DHT22;59888;55.814;37.132;2023-08-06T09:18:41;34.69;33.28
71396;DHT22;59888;55.814;37.132;2023-08-06T09:21:13;34.75;33.09
71396;DHT22;59888;55.814;37.132;2023-08-06T09:23:39;34.78;32.98
71396;DHT22;59888;55.814;37.132;2023-08-06T09:26:05;34.85;32.96
71396;DHT22;59888;55.814;37.132;2023-08-06T09:28:37;34.97;32.73
71396;DHT22;59888;55.814;37.132;2023-08-06T09:31:05;35.00;32.82
71396;DHT22;59888;55.814;37.132;2023-08-06T09:33:31;35.10;32.76
71396;DHT22;59888;55.814;37.132;2023-08-06T09:35:56;35.19;32.48
71396;DHT22;59888;55.814;37.132;2023-08-06T09:38:23;35.21;32.44
71396;DHT22;59888;55.814;37.132;2023-08-06T09:40:49;35.01;32.65
71396;DHT22;59888;55.814;37.132;2023-08-06T09:43:14;34.95;32.89
71396;DHT22;59888;55.814;37.132;2023-08-06T09:45:41;35.01;32.38
71396;DHT22;59888;55.814;37.132;2023-08-06T09:48:08;35.11;32.73
71396;DHT22;59888;55.814;37.132;2023-08-06T09:50:36;35.16;32.39
71396;DHT22;59888;55.814;37.132;2023-08-06T09:53:07;35.18;32.20
71396;DHT22;59888;55.814;37.132;2023-08-06T09:55:36;35.24;32.31
71396;DHT22;59888;55.814;37.132;2023-08-06T09:58:03;35.34;32.42
71396;DHT22;59888;55.814;37.132;2023-08-06T10:00:29;35.39;32.20
71396;DHT22;59888;55.814;37.132;2023-08-06T10:03:01;35.47;31.80
71396;DHT22;59888;55.814;37.132;2023-08-06T10:05:27;35.55;32.31
71396;DHT22;59888;55.814;37.132;2023-08-06T10:07:53;35.59;32.04
71396;DHT22;59888;55.814;37.132;2023-08-06T10:10:21;35.63;31.80
71396;DHT22;59888;55.814;37.132;2023-08-06T10:12:50;35.66;31.58
71396;DHT22;59888;55.814;37.132;2023-08-06T10:15:27;35.74;31.39
71396;DHT22;59888;55.814;37.132;2023-08-06T10:17:57;35.81;31.51
71396;DHT22;59888;55.814;37.132;2023-08-06T10:20:23;35.80;31.89
71396;DHT22;59888;55.814;37.132;2023-08-06T10:23:03;35.87;31.39
71396;DHT22;59888;55.814;37.132;2023-08-06T10:25:34;35.86;31.41
71396;DHT22;59888;55.814;37.132;2023-08-06T10:28:07;35.79;31.41
71396;DHT22;59888;55.814;37.132;2023-08-06T10:30:41;35.82;31.33
71396;DHT22;59888;55.814;37.132;2023-08-06T10:33:07;35.75;30.89
71396;DHT22;59888;55.814;37.132;2023-08-06T10:35:46;35.84;31.02
71396;DHT22;59888;55.814;37.132;2023-08-06T10:43:32;35.82;30.75
71396;DHT22;59888;55.814;37.132;2023-08-06T10:46:03;35.73;31.46
71396;DHT22;59888;55.814;37.132;2023-08-06T10:48:30;35.65;31.51
71396;DHT22;59888;55.814;37.132;2023-08-06T10:51:00;35.62;31.41
71396;DHT22;59888;55.814;37.132;2023-08-06T10:53:26;35.59;31.53
71396;DHT22;59888;55.814;37.132;2023-08-06T10:55:52;35.63;31.58
71396;DHT22;59888;55.814;37.132;2023-08-06T10:58:18;35.72;31.25
71396;DHT22;59888;55.814;37.132;2023-08-06T11:00:44;35.81;31.54
71396;DHT22;59888;55.814;37.132;2023-08-06T11:03:10;35.96;31.12
71396;DHT22;59888;55.814;37.132;2023-08-06T11:05:36;36.08;31.08
71396;DHT22;59888;55.814;37.132;2023-08-06T11:08:02;36.13;31.11
71396;DHT22;59888;55.814;37.132;2023-08-06T11:10:28;36.08;31.04
71396;DHT22;59888;55.814;37.132;2023-08-06T11:12:55;36.03;31.04
71396;DHT22;59888;55.814;37.132;2023-08-06T11:15:26;35.96;31.07
71396;DHT22;59888;55.814;37.132;2023-08-06T11:17:52;36.02;31.08
71396;DHT22;59888;55.814;37.132;2023-08-06T11:20:20;36.12;30.85
71396;DHT22;59888;55.814;37.132;2023-08-06T11:22:47;36.24;30.73
71396;DHT22;59888;55.814;37.132;2023-08-06T11:25:13;36.34;30.90
71396;DHT22;59888;55.814;37.132;2023-08-06T11:27:39;36.46;30.83
71396;DHT22;59888;55.814;37.132;2023-08-06T11:30:05;36.48;30.71
71396;DHT22;59888;55.814;37.132;2023-08-06T11:32:47;36.30;30.22
71396;DHT22;59888;55.814;37.132;2023-08-06T11:35:17;36.27;30.75
71396;DHT22;59888;55.814;37.132;2023-08-06T11:37:46;36.26;30.89
71396;DHT22;59888;55.814;37.132;2023-08-06T11:40:14;36.29;30.70
71396;DHT22;59888;55.814;37.132;2023-08-06T11:42:41;36.29;30.76
71396;DHT22;59888;55.814;37.132;2023-08-06T11:45:08;36.40;30.87
71396;DHT22;59888;55.814;37.132;2023-08-06T11:47:41;36.46;30.54
71396;DHT22;59888;55.814;37.132;2023-08-06T11:50:22;36.54;30.36
71396;DHT22;59888;55.814;37.132;2023-08-06T11:52:48;36.61;30.45
71396;DHT22;59888;55.814;37.132;2023-08-06T11:58:36;36.64;30.06
71396;DHT22;59888;55.814;37.132;2023-08-06T12:01:02;36.68;30.35
71396;DHT22;59888;55.814;37.132;2023-08-06T12:03:29;36.74;30.12
71396;DHT22;59888;55.814;37.132;2023-08-06T12:05:56;36.73;30.38
71396;DHT22;59888;55.814;37.132;2023-08-06T12:08:26;36.76;29.73
71396;DHT22;59888;55.814;37.132;2023-08-06T12:10:56;36.89;29.97
71396;DHT22;59888;55.814;37.132;2023-08-06T12:13:50;36.96;29.50
71396;DHT22;59888;55.814;37.132;2023-08-06T12:16:21;37.01;29.58
71396;DHT22;59888;55.814;37.132;2023-08-06T12:18:50;37.05;29.61
71396;DHT22;59888;55.814;37.132;2023-08-06T12:21:17;37.05;29.84
71396;DHT22;59888;55.814;37.132;2023-08-06T12:23:47;37.05;29.50
71396;DHT22;59888;55.814;37.132;2023-08-06T12:26:15;37.20;29.60
71396;DHT22;59888;55.814;37.132;2023-08-06T12:28:42;37.20;29.55
71396;DHT22;59888;55.814;37.132;2023-08-06T12:31:11;37.28;29.13
71396;DHT22;59888;55.814;37.132;2023-08-06T12:33:41;37.20;29.45
71396;DHT22;59888;55.814;37.132;2023-08-06T12:36:07;37.19;29.51
71396;DHT22;59888;55.814;37.132;2023-08-06T12:38:34;37.29;29.43
71396;DHT22;59888;55.814;37.132;2023-08-06T12:41:00;37.44;29.10
71396;DHT22;59888;55.814;37.132;2023-08-06T12:43:26;37.54;28.81
71396;DHT22;59888;55.814;37.132;2023-08-06T12:45:53;37.56;29.00
71396;DHT22;59888;55.814;37.132;2023-08-06T12:48:20;37.61;28.74
71396;DHT22;59888;55.814;37.132;2023-08-06T12:50:45;37.87;28.56
71396;DHT22;59888;55.814;37.132;2023-08-06T12:53:13;38.16;28.49
71396;DHT22;59888;55.814;37.132;2023-08-06T12:55:38;38.68;28.64
71396;DHT22;59888;55.814;37.132;2023-08-06T12:58:09;39.56;27.36
71396;DHT22;59888;55.814;37.132;2023-08-06T13:00:36;40.87;26.31
71396;DHT22;59888;55.814;37.132;2023-08-06T13:03:03;42.33;25.20
71396;DHT22;59888;55.814;37.132;2023-08-06T13:05:29;42.24;24.70
71396;DHT22;59888;55.814;37.132;2023-08-06T13:07:55;44.02;24.63
71396;DHT22;59888;55.814;37.132;2023-08-06T13:10:21;45.95;22.88
71396;DHT22;59888;55.814;37.132;2023-08-06T13:12:47;47.67;21.42
71396;DHT22;59888;55.814;37.132;2023-08-06T13:15:13;48.70;20.28
71396;DHT22;59888;55.814;37.132;2023-08-06T13:17:40;0.00;0.00
71396;DHT22;59888;55.814;37.132;2023-08-06T13:20:06;0.00;0.00
71396;DHT22;59888;55.814;37.132;2023-08-06T13:22:32;0.00;0.00
71396;DHT22;59888;55.814;37.132;2023-08-06T13:24:58;0.00;0.00
71396;DHT22;59888;55.814;37.132;2023-08-06T13:27:24;0.00;0.00
71396;DHT22;59888;55.814;37.132;2023-08-06T13:29:50;0.00;0.00
71396;DHT22;59888;55.814;37.132;2023-08-06T13:32:15;0.00;0.00
71396;DHT22;59888;55.814;37.132;2023-08-06T13:34:42;0.00;0.00
71396;DHT22;59888;55.814;37.132;2023-08-06T13:37:08;0.00;0.00
71396;DHT22;59888;55.814;37.132;2023-08-06T13:39:34;0.00;0.00
71396;DHT22;59888;55.814;37.132;2023-08-06T13:42:00;0.00;0.00
71396;DHT22;59888;55.814;37.132;2023-08-06T13:44:27;0.00;0.00
71396;DHT22;59888;55.814;37.132;2023-08-06T13:46:54;0.00;0.00
71396;DHT22;59888;55.814;37.132;2023-08-06T13:49:20;0.00;0.00
71396;DHT22;59888;55.814;37.132;2023-08-06T13:51:46;0.00;0.00
71396;DHT22;59888;55.814;37.132;2023-08-06T13:54:12;0.00;0.00
71396;DHT22;59888;55.814;37.132;2023-08-06T13:56:38;0.00;0.00
71396;DHT22;59888;55.814;37.132;2023-08-06T13:59:04;0.00;0.00
71396;DHT22;59888;55.814;37.132;2023-08-06T14:01:30;0.00;0.00
71396;DHT22;59888;55.814;37.132;2023-08-06T14:03:56;0.00;0.00
71396;DHT22;59888;55.814;37.132;2023-08-06T14:06:22;0.00;0.00
71396;DHT22;59888;55.814;37.132;2023-08-06T14:08:48;0.00;0.00
71396;DHT22;59888;55.814;37.132;2023-08-06T14:11:13;0.00;0.00
71396;DHT22;59888;55.814;37.132;2023-08-06T14:13:42;0.00;0.00
71396;DHT22;59888;55.814;37.132;2023-08-06T14:16:08;0.00;0.00
71396;DHT22;59888;55.814;37.132;2023-08-06T14:18:34;0.00;0.00
71396;DHT22;59888;55.814;37.132;2023-08-06T14:21:02;0.00;0.00
71396;DHT22;59888;55.814;37.132;2023-08-06T14:23:29;0.00;0.00
71396;DHT22;59888;55.814;37.132;2023-08-06T14:25:55;0.00;0.00
71396;DHT22;59888;55.814;37.132;2023-08-06T14:28:21;0.00;0.00
71396;DHT22;59888;55.814;37.132;2023-08-06T14:30:47;0.00;0.00
71396;DHT22;59888;55.814;37.132;2023-08-06T14:33:13;0.00;0.00
71396;DHT22;59888;55.814;37.132;2023-08-06T14:35:39;0.00;0.00
71396;DHT22;59888;55.814;37.132;2023-08-06T14:38:05;0.00;0.00
71396;DHT22;59888;55.814;37.132;2023-08-06T14:40:33;0.00;0.00
71396;DHT22;59888;55.814;37.132;2023-08-06T14:43:00;0.00;0.00
71396;DHT22;59888;55.814;37.132;2023-08-06T14:45:28;0.00;0.00
71396;DHT22;59888;55.814;37.132;2023-08-06T14:47:54;0.00;0.00
71396;DHT22;59888;55.814;37.132;2023-08-06T14:50:21;0.00;0.00
71396;DHT22;59888;55.814;37.132;2023-08-06T14:52:47;0.00;0.00
71396;DHT22;59888;55.814;37.132;2023-08-06T14:55:23;0.00;0.00
71396;DHT22;59888;55.814;37.132;2023-08-06T14:57:49;0.00;0.00
71396;DHT22;59888;55.814;37.132;2023-08-06T15:00:15;0.00;0.00
71396;DHT22;59888;55.814;37.132;2023-08-06T15:02:41;0.00;0.00
71396;DHT22;59888;55.814;37.132;2023-08-06T15:05:07;0.00;0.00
71396;DHT22;59888;55.814;37.132;2023-08-06T15:07:33;0.00;0.00
71396;DHT22;59888;55.814;37.132;2023-08-06T15:10:01;0.00;0.00
71396;DHT22;59888;55.814;37.132;2023-08-06T15:12:29;0.00;0.00
71396;DHT22;59888;55.814;37.132;2023-08-06T15:14:55;0.00;0.00
71396;DHT22;59888;55.814;37.132;2023-08-06T15:17:23;0.00;0.00
71396;DHT22;59888;55.814;37.132;2023-08-06T15:19:50;0.00;13.07
71396;DHT22;59888;55.814;37.132;2023-08-06T15:22:16;52.46;13.14
71396;DHT22;59888;55.814;37.132;2023-08-06T15:24:45;52.46;13.01
71396;DHT22;59888;55.814;37.132;2023-08-06T15:27:11;52.45;12.94
71396;DHT22;59888;55.814;37.132;2023-08-06T15:29:37;52.26;12.99
71396;DHT22;59888;55.814;37.132;2023-08-06T15:32:03;52.22;13.00
71396;DHT22;59888;55.814;37.132;2023-08-06T15:34:30;52.13;12.97
71396;DHT22;59888;55.814;37.132;2023-08-06T15:36:56;52.07;13.06